sensor_id;sensor_type;location;lat;lon;timestamp;temperature;humidity
32366;DHT22;18837;46.832;16.838;2024-02-04T00:01:02;5.90;96.60
32366;DHT22;18837;46.832;16.838;2024-02-04T00:03:28;5.90;96.60
32366;DHT22;18837;46.832;16.838;2024-02-04T00:06:12;5.90;96.60
32366;DHT22;18837;46.832;16.838;2024-02-04T00:08:53;5.90;96.60
32366;DHT22;18837;46.832;16.838;2024-02-04T00:11:19;5.90;96.40
32366;DHT22;18837;46.832;16.838;2024-02-04T00:13:45;5.90;96.50
32366;DHT22;18837;46.832;16.838;2024-02-04T00:16:11;5.90;96.60
32366;DHT22;18837;46.832;16.838;2024-02-04T00:18:37;5.90;96.60
32366;DHT22;18837;46.832;16.838;2024-02-04T00:21:03;5.90;96.50
32366;DHT22;18837;46.832;16.838;2024-02-04T00:23:29;5.80;96.70
32366;DHT22;18837;46.832;16.838;2024-02-04T00:25:55;5.80;96.70
32366;DHT22;18837;46.832;16.838;2024-02-04T00:28:21;5.80;96.60
32366;DHT22;18837;46.832;16.838;2024-02-04T00:30:47;5.80;96.70
32366;DHT22;18837;46.832;16.838;2024-02-04T00:33:15;5.80;96.70
32366;DHT22;18837;46.832;16.838;2024-02-04T00:35:41;5.70;96.80
32366;DHT22;18837;46.832;16.838;2024-02-04T00:38:08;5.80;96.60
32366;DHT22;18837;46.832;16.838;2024-02-04T00:40:34;5.80;96.70
32366;DHT22;18837;46.832;16.838;2024-02-04T00:43:00;5.80;96.80
32366;DHT22;18837;46.832;16.838;2024-02-04T00:45:26;5.80;96.70
32366;DHT22;18837;46.832;16.838;2024-02-04T00:47:52;5.80;96.60
32366;DHT22;18837;46.832;16.838;2024-02-04T00:50:18;5.80;96.60
32366;DHT22;18837;46.832;16.838;2024-02-04T00:52:44;5.80;96.70
32366;DHT22;18837;46.832;16.838;2024-02-04T00:55:10;5.70;96.50
32366;DHT22;18837;46.832;16.838;2024-02-04T00:57:36;5.80;96.70
32366;DHT22;18837;46.832;16.838;2024-02-04T01:00:02;5.70;96.80
32366;DHT22;18837;46.832;16.838;2024-02-04T01:02:29;5.70;96.10
32366;DHT22;18837;46.832;16.838;2024-02-04T01:04:55;5.70;96.90
32366;DHT22;18837;46.832;16.838;2024-02-04T01:07:27;5.70;96.90
32366;DHT22;18837;46.832;16.838;2024-02-04T01:10:06;5.70;96.80
32366;DHT22;18837;46.832;16.838;2024-02-04T01:12:35;5.70;96.90
32366;DHT22;18837;46.832;16.838;2024-02-04T01:15:01;5.60;96.90
32366;DHT22;18837;46.832;16.838;2024-02-04T01:17:30;5.70;96.80
32366;DHT22;18837;46.832;16.838;2024-02-04T01:19:57;5.60;96.80
32366;DHT22;18837;46.832;16.838;2024-02-04T01:22:23;5.70;96.80
32366;DHT22;18837;46.832;16.838;2024-02-04T01:25:10;5.70;96.80
32366;DHT22;18837;46.832;16.838;2024-02-04T01:27:59;5.70;96.30
32366;DHT22;18837;46.832;16.838;2024-02-04T01:30:25;5.70;96.70
32366;DHT22;18837;46.832;16.838;2024-02-04T01:32:51;5.70;96.70
32366;DHT22;18837;46.832;16.838;2024-02-04T01:37:43;5.70;96.80
32366;DHT22;18837;46.832;16.838;2024-02-04T01:40:12;5.60;96.80
32366;DHT22;18837;46.832;16.838;2024-02-04T01:42:58;5.60;96.80
32366;DHT22;18837;46.832;16.838;2024-02-04T01:45:23;5.60;97.00
32366;DHT22;18837;46.832;16.838;2024-02-04T01:47:50;5.60;96.90
32366;DHT22;18837;46.832;16.838;2024-02-04T01:50:17;5.60;97.00
32366;DHT22;18837;46.832;16.838;2024-02-04T01:52:44;5.60;97.00
32366;DHT22;18837;46.832;16.838;2024-02-04T01:55:10;5.60;97.10
32366;DHT22;18837;46.832;16.838;2024-02-04T01:57:37;5.50;96.90
32366;DHT22;18837;46.832;16.838;2024-02-04T02:03:34;5.60;97.00
32366;DHT22;18837;46.832;16.838;2024-02-04T02:06:01;5.60;96.80
32366;DHT22;18837;46.832;16.838;2024-02-04T02:08:27;5.60;96.80
32366;DHT22;18837;46.832;16.838;2024-02-04T02:11:00;5.60;96.90
32366;DHT22;18837;46.832;16.838;2024-02-04T02:13:31;5.60;96.90
32366;DHT22;18837;46.832;16.838;2024-02-04T02:16:18;5.60;96.90
32366;DHT22;18837;46.832;16.838;2024-02-04T02:22:26;5.50;97.00
32366;DHT22;18837;46.832;16.838;2024-02-04T02:24:58;5.50;97.00
32366;DHT22;18837;46.832;16.838;2024-02-04T02:27:25;5.50;97.10
32366;DHT22;18837;46.832;16.838;2024-02-04T02:29:52;5.50;97.00
32366;DHT22;18837;46.832;16.838;2024-02-04T02:32:18;5.50;97.20
32366;DHT22;18837;46.832;16.838;2024-02-04T02:35:08;5.50;97.20
32366;DHT22;18837;46.832;16.838;2024-02-04T02:38:24;5.50;97.20
32366;DHT22;18837;46.832;16.838;2024-02-04T02:40:59;5.50;97.00
32366;DHT22;18837;46.832;16.838;2024-02-04T02:43:25;5.50;97.00
32366;DHT22;18837;46.832;16.838;2024-02-04T02:45:52;5.50;97.10
32366;DHT22;18837;46.832;16.838;2024-02-04T02:48:18;5.50;97.00
32366;DHT22;18837;46.832;16.838;2024-02-04T02:50:44;5.50;96.90
32366;DHT22;18837;46.832;16.838;2024-02-04T02:53:10;5.50;96.50
32366;DHT22;18837;46.832;16.838;2024-02-04T02:55:35;5.50;96.40
32366;DHT22;18837;46.832;16.838;2024-02-04T02:58:01;5.50;96.60
32366;DHT22;18837;46.832;16.838;2024-02-04T03:00:27;5.50;96.60
32366;DHT22;18837;46.832;16.838;2024-02-04T03:02:53;5.50;96.60
32366;DHT22;18837;46.832;16.838;2024-02-04T03:05:18;5.50;96.70
32366;DHT22;18837;46.832;16.838;2024-02-04T03:07:45;5.40;96.60
32366;DHT22;18837;46.832;16.838;2024-02-04T03:10:14;5.40;96.60
32366;DHT22;18837;46.832;16.838;2024-02-04T03:12:40;5.50;96.50
32366;DHT22;18837;46.832;16.838;2024-02-04T03:15:06;5.40;96.70
32366;DHT22;18837;46.832;16.838;2024-02-04T03:17:32;5.40;96.60
32366;DHT22;18837;46.832;16.838;2024-02-04T03:19:58;5.40;96.70
32366;DHT22;18837;46.832;16.838;2024-02-04T03:22:24;5.40;96.60
32366;DHT22;18837;46.832;16.838;2024-02-04T03:24:50;5.50;96.80
32366;DHT22;18837;46.832;16.838;2024-02-04T03:27:24;5.40;96.60
32366;DHT22;18837;46.832;16.838;2024-02-04T03:29:50;5.50;96.60
32366;DHT22;18837;46.832;16.838;2024-02-04T03:32:16;5.40;96.40
32366;DHT22;18837;46.832;16.838;2024-02-04T03:34:42;5.40;96.50
32366;DHT22;18837;46.832;16.838;2024-02-04T03:37:08;5.40;96.70
32366;DHT22;18837;46.832;16.838;2024-02-04T03:39:34;5.40;96.70
32366;DHT22;18837;46.832;16.838;2024-02-04T03:41:59;5.40;96.70
32366;DHT22;18837;46.832;16.838;2024-02-04T03:44:25;5.40;96.80
32366;DHT22;18837;46.832;16.838;2024-02-04T03:46:51;5.40;96.80
32366;DHT22;18837;46.832;16.838;2024-02-04T03:49:17;5.40;96.70
32366;DHT22;18837;46.832;16.838;2024-02-04T03:51:43;5.40;96.70
32366;DHT22;18837;46.832;16.838;2024-02-04T03:54:09;5.40;96.80
32366;DHT22;18837;46.832;16.838;2024-02-04T03:56:35;5.40;96.70
32366;DHT22;18837;46.832;16.838;2024-02-04T03:59:01;5.40;96.80
32366;DHT22;18837;46.832;16.838;2024-02-04T04:01:26;5.40;96.80
32366;DHT22;18837;46.832;16.838;2024-02-04T04:03:52;5.40;96.70
32366;DHT22;18837;46.832;16.838;2024-02-04T04:06:18;5.40;96.70
32366;DHT22;18837;46.832;16.838;2024-02-04T04:08:44;5.40;96.60
32366;DHT22;18837;46.832;16.838;2024-02-04T04:11:10;5.40;96.60
32366;DHT22;18837;46.832;16.838;2024-02-04T04:13:36;5.40;96.60
32366;DHT22;18837;46.832;16.838;2024-02-04T04:16:06;5.40;96.60
32366;DHT22;18837;46.832;16.838;2024-02-04T04:18:33;5.40;96.50
32366;DHT22;18837;46.832;16.838;2024-02-04T04:21:01;5.30;96.70
32366;DHT22;18837;46.832;16.838;2024-02-04T04:23:27;5.30;96.60
32366;DHT22;18837;46.832;16.838;2024-02-04T04:25:52;5.40;96.70
32366;DHT22;18837;46.832;16.838;2024-02-04T04:28:18;5.30;96.80
32366;DHT22;18837;46.832;16.838;2024-02-04T04:30:44;5.30;96.70
32366;DHT22;18837;46.832;16.838;2024-02-04T04:33:09;5.30;96.70
32366;DHT22;18837;46.832;16.838;2024-02-04T04:35:49;5.30;96.90
32366;DHT22;18837;46.832;16.838;2024-02-04T04:38:15;5.30;96.80
32366;DHT22;18837;46.832;16.838;2024-02-04T04:40:41;5.30;96.80
32366;DHT22;18837;46.832;16.838;2024-02-04T04:43:06;5.30;96.70
32366;DHT22;18837;46.832;16.838;2024-02-04T04:45:32;5.30;96.70
32366;DHT22;18837;46.832;16.838;2024-02-04T04:47:58;5.30;96.80
32366;DHT22;18837;46.832;16.838;2024-02-04T04:50:24;5.30;96.60
32366;DHT22;18837;46.832;16.838;2024-02-04T04:52:59;5.40;96.80
32366;DHT22;18837;46.832;16.838;2024-02-04T04:55:26;5.40;96.70
32366;DHT22;18837;46.832;16.838;2024-02-04T04:57:51;5.30;96.60
32366;DHT22;18837;46.832;16.838;2024-02-04T05:00:21;5.30;96.80
32366;DHT22;18837;46.832;16.838;2024-02-04T05:02:47;5.30;96.60
32366;DHT22;18837;46.832;16.838;2024-02-04T05:05:13;5.30;96.80
32366;DHT22;18837;46.832;16.838;2024-02-04T05:07:39;5.30;96.80
32366;DHT22;18837;46.832;16.838;2024-02-04T05:10:07;5.30;96.80
32366;DHT22;18837;46.832;16.838;2024-02-04T05:12:34;5.30;96.70
32366;DHT22;18837;46.832;16.838;2024-02-04T05:15:00;5.30;96.90
32366;DHT22;18837;46.832;16.838;2024-02-04T05:17:27;5.30;96.80
32366;DHT22;18837;46.832;16.838;2024-02-04T05:19:52;5.30;96.60
32366;DHT22;18837;46.832;16.838;2024-02-04T05:22:18;5.30;96.90
32366;DHT22;18837;46.832;16.838;2024-02-04T05:24:44;5.30;96.90
32366;DHT22;18837;46.832;16.838;2024-02-04T05:27:13;5.30;96.60
32366;DHT22;18837;46.832;16.838;2024-02-04T05:29:42;5.30;96.80
32366;DHT22;18837;46.832;16.838;2024-02-04T05:32:07;5.30;96.90
32366;DHT22;18837;46.832;16.838;2024-02-04T05:34:33;5.30;96.80
32366;DHT22;18837;46.832;16.838;2024-02-04T05:37:00;5.40;96.80
32366;DHT22;18837;46.832;16.838;2024-02-04T05:39:25;5.30;96.80
32366;DHT22;18837;46.832;16.838;2024-02-04T05:41:51;5.30;96.80
32366;DHT22;18837;46.832;16.838;2024-02-04T05:44:20;5.30;96.80
32366;DHT22;18837;46.832;16.838;2024-02-04T05:55:05;5.30;96.90
32366;DHT22;18837;46.832;16.838;2024-02-04T06:08:30;5.30;97.10
32366;DHT22;18837;46.832;16.838;2024-02-04T06:10:55;5.30;96.90
32366;DHT22;18837;46.832;16.838;2024-02-04T06:13:21;5.30;96.90
32366;DHT22;18837;46.832;16.838;2024-02-04T06:15:47;5.30;96.90
32366;DHT22;18837;46.832;16.838;2024-02-04T06:29:22;5.30;97.40
32366;DHT22;18837;46.832;16.838;2024-02-04T06:31:51;4.00;96.00
32366;DHT22;18837;46.832;16.838;2024-02-04T06:34:17;5.30;97.00
32366;DHT22;18837;46.832;16.838;2024-02-04T06:37:06;5.30;96.90
32366;DHT22;18837;46.832;16.838;2024-02-04T06:39:34;5.30;96.30
32366;DHT22;18837;46.832;16.838;2024-02-04T06:42:00;5.30;97.00
32366;DHT22;18837;46.832;16.838;2024-02-04T06:44:25;5.30;97.20
32366;DHT22;18837;46.832;16.838;2024-02-04T06:46:51;5.30;97.20
32366;DHT22;18837;46.832;16.838;2024-02-04T06:49:17;5.30;97.00
32366;DHT22;18837;46.832;16.838;2024-02-04T06:51:44;5.20;97.10
32366;DHT22;18837;46.832;16.838;2024-02-04T06:54:10;5.30;97.10
32366;DHT22;18837;46.832;16.838;2024-02-04T06:56:36;5.30;97.10
32366;DHT22;18837;46.832;16.838;2024-02-04T06:59:04;5.30;97.30
32366;DHT22;18837;46.832;16.838;2024-02-04T07:01:32;5.30;97.10
32366;DHT22;18837;46.832;16.838;2024-02-04T07:03:58;5.30;97.10
32366;DHT22;18837;46.832;16.838;2024-02-04T07:06:23;5.30;97.10
32366;DHT22;18837;46.832;16.838;2024-02-04T07:08:50;5.30;97.20
32366;DHT22;18837;46.832;16.838;2024-02-04T07:11:34;5.30;97.20
32366;DHT22;18837;46.832;16.838;2024-02-04T07:14:09;5.30;97.00
32366;DHT22;18837;46.832;16.838;2024-02-04T07:16:35;5.30;97.20
32366;DHT22;18837;46.832;16.838;2024-02-04T07:19:01;5.30;97.30
32366;DHT22;18837;46.832;16.838;2024-02-04T07:21:26;5.30;97.30
32366;DHT22;18837;46.832;16.838;2024-02-04T07:23:52;4.60;97.00
32366;DHT22;18837;46.832;16.838;2024-02-04T07:26:19;5.30;97.30
32366;DHT22;18837;46.832;16.838;2024-02-04T07:28:45;5.30;97.30
32366;DHT22;18837;46.832;16.838;2024-02-04T07:31:11;5.30;97.30
32366;DHT22;18837;46.832;16.838;2024-02-04T07:33:36;5.30;97.20
32366;DHT22;18837;46.832;16.838;2024-02-04T07:36:04;5.30;97.20
32366;DHT22;18837;46.832;16.838;2024-02-04T07:38:30;5.30;97.20
32366;DHT22;18837;46.832;16.838;2024-02-04T07:40:56;5.30;97.20
32366;DHT22;18837;46.832;16.838;2024-02-04T07:43:24;5.30;97.30
32366;DHT22;18837;46.832;16.838;2024-02-04T07:45:50;5.30;97.40
32366;DHT22;18837;46.832;16.838;2024-02-04T07:48:16;5.30;97.30
32366;DHT22;18837;46.832;16.838;2024-02-04T07:50:43;5.40;97.30
32366;DHT22;18837;46.832;16.838;2024-02-04T07:53:09;5.40;97.30
32366;DHT22;18837;46.832;16.838;2024-02-04T07:55:35;5.30;97.40
32366;DHT22;18837;46.832;16.838;2024-02-04T07:58:02;5.30;97.40
32366;DHT22;18837;46.832;16.838;2024-02-04T08:00:28;5.40;97.40
32366;DHT22;18837;46.832;16.838;2024-02-04T08:02:55;5.40;97.30
32366;DHT22;18837;46.832;16.838;2024-02-04T08:05:21;5.40;97.50
32366;DHT22;18837;46.832;16.838;2024-02-04T08:07:46;5.30;97.40
32366;DHT22;18837;46.832;16.838;2024-02-04T08:10:12;5.40;97.30
32366;DHT22;18837;46.832;16.838;2024-02-04T08:12:41;5.30;97.10
32366;DHT22;18837;46.832;16.838;2024-02-04T08:15:09;5.40;97.40
32366;DHT22;18837;46.832;16.838;2024-02-04T08:17:35;5.40;97.40
32366;DHT22;18837;46.832;16.838;2024-02-04T08:20:02;5.40;97.30
32366;DHT22;18837;46.832;16.838;2024-02-04T08:22:30;5.40;97.40
32366;DHT22;18837;46.832;16.838;2024-02-04T08:24:56;5.40;97.40
32366;DHT22;18837;46.832;16.838;2024-02-04T08:27:21;5.40;97.40
32366;DHT22;18837;46.832;16.838;2024-02-04T08:29:47;5.40;97.40
32366;DHT22;18837;46.832;16.838;2024-02-04T08:32:14;5.40;97.50
32366;DHT22;18837;46.832;16.838;2024-02-04T08:34:40;5.40;97.40
32366;DHT22;18837;46.832;16.838;2024-02-04T08:37:06;5.40;97.50
32366;DHT22;18837;46.832;16.838;2024-02-04T08:39:33;5.40;97.40
32366;DHT22;18837;46.832;16.838;2024-02-04T08:41:59;5.40;97.50
32366;DHT22;18837;46.832;16.838;2024-02-04T08:44:26;5.40;97.20
32366;DHT22;18837;46.832;16.838;2024-02-04T08:46:55;5.50;96.90
32366;DHT22;18837;46.832;16.838;2024-02-04T08:49:22;5.40;97.40
32366;DHT22;18837;46.832;16.838;2024-02-04T08:51:49;5.40;96.70
32366;DHT22;18837;46.832;16.838;2024-02-04T08:54:15;5.40;97.30
32366;DHT22;18837;46.832;16.838;2024-02-04T08:56:43;5.50;97.40
32366;DHT22;18837;46.832;16.838;2024-02-04T08:59:14;5.50;97.30
32366;DHT22;18837;46.832;16.838;2024-02-04T09:01:52;5.50;96.80
32366;DHT22;18837;46.832;16.838;2024-02-04T09:04:30;5.60;97.30
32366;DHT22;18837;46.832;16.838;2024-02-04T09:07:06;5.60;97.40
32366;DHT22;18837;46.832;16.838;2024-02-04T09:09:33;5.60;97.30
32366;DHT22;18837;46.832;16.838;2024-02-04T09:11:58;5.60;97.20
32366;DHT22;18837;46.832;16.838;2024-02-04T09:14:24;5.60;97.20
32366;DHT22;18837;46.832;16.838;2024-02-04T09:16:50;5.60;97.30
32366;DHT22;18837;46.832;16.838;2024-02-04T09:19:16;5.70;97.20
32366;DHT22;18837;46.832;16.838;2024-02-04T09:21:42;5.70;97.10
32366;DHT22;18837;46.832;16.838;2024-02-04T09:24:07;5.70;97.20
32366;DHT22;18837;46.832;16.838;2024-02-04T09:26:34;5.70;97.10
32366;DHT22;18837;46.832;16.838;2024-02-04T09:29:00;5.70;97.10
32366;DHT22;18837;46.832;16.838;2024-02-04T09:31:26;5.80;97.00
32366;DHT22;18837;46.832;16.838;2024-02-04T09:33:59;5.80;97.30
32366;DHT22;18837;46.832;16.838;2024-02-04T09:36:25;5.90;97.80
32366;DHT22;18837;46.832;16.838;2024-02-04T09:38:52;6.00;97.80
32366;DHT22;18837;46.832;16.838;2024-02-04T09:41:18;6.00;97.10
32366;DHT22;18837;46.832;16.838;2024-02-04T09:43:43;6.10;97.80
32366;DHT22;18837;46.832;16.838;2024-02-04T09:46:09;6.10;98.00
32366;DHT22;18837;46.832;16.838;2024-02-04T09:48:44;6.10;98.00
32366;DHT22;18837;46.832;16.838;2024-02-04T09:51:20;6.10;97.90
32366;DHT22;18837;46.832;16.838;2024-02-04T09:53:56;6.10;97.70
32366;DHT22;18837;46.832;16.838;2024-02-04T09:56:25;6.10;98.20
32366;DHT22;18837;46.832;16.838;2024-02-04T09:58:52;6.10;98.00
32366;DHT22;18837;46.832;16.838;2024-02-04T10:01:19;6.10;98.00
32366;DHT22;18837;46.832;16.838;2024-02-04T10:03:47;6.10;98.10
32366;DHT22;18837;46.832;16.838;2024-02-04T10:06:13;6.20;97.80
32366;DHT22;18837;46.832;16.838;2024-02-04T10:08:40;6.20;97.90
32366;DHT22;18837;46.832;16.838;2024-02-04T10:11:06;6.20;97.40
32366;DHT22;18837;46.832;16.838;2024-02-04T10:13:46;6.40;99.20
32366;DHT22;18837;46.832;16.838;2024-02-04T10:16:16;6.50;98.60
32366;DHT22;18837;46.832;16.838;2024-02-04T10:18:46;6.60;99.70
32366;DHT22;18837;46.832;16.838;2024-02-04T10:21:20;6.70;99.70
32366;DHT22;18837;46.832;16.838;2024-02-04T10:23:52;6.80;99.20
32366;DHT22;18837;46.832;16.838;2024-02-04T10:26:20;6.80;99.00
32366;DHT22;18837;46.832;16.838;2024-02-04T10:28:47;6.90;99.50
32366;DHT22;18837;46.832;16.838;2024-02-04T10:31:13;6.90;99.70
32366;DHT22;18837;46.832;16.838;2024-02-04T10:33:39;7.00;99.50
32366;DHT22;18837;46.832;16.838;2024-02-04T10:36:05;7.10;99.90
32366;DHT22;18837;46.832;16.838;2024-02-04T10:38:32;7.20;99.90
32366;DHT22;18837;46.832;16.838;2024-02-04T10:41:00;7.20;99.90
32366;DHT22;18837;46.832;16.838;2024-02-04T10:43:33;7.20;99.70
32366;DHT22;18837;46.832;16.838;2024-02-04T10:46:20;7.20;99.40
32366;DHT22;18837;46.832;16.838;2024-02-04T10:48:56;7.10;99.60
32366;DHT22;18837;46.832;16.838;2024-02-04T10:51:26;7.10;99.90
32366;DHT22;18837;46.832;16.838;2024-02-04T10:53:54;7.10;99.80
32366;DHT22;18837;46.832;16.838;2024-02-04T10:56:45;7.20;99.90
32366;DHT22;18837;46.832;16.838;2024-02-04T11:01:47;7.20;97.90
32366;DHT22;18837;46.832;16.838;2024-02-04T11:04:17;7.20;98.50
32366;DHT22;18837;46.832;16.838;2024-02-04T11:06:44;7.20;99.60
32366;DHT22;18837;46.832;16.838;2024-02-04T11:09:14;7.20;99.70
32366;DHT22;18837;46.832;16.838;2024-02-04T11:11:41;7.20;99.30
32366;DHT22;18837;46.832;16.838;2024-02-04T11:14:11;7.10;99.80
32366;DHT22;18837;46.832;16.838;2024-02-04T11:27:17;7.10;98.00
32366;DHT22;18837;46.832;16.838;2024-02-04T11:29:43;7.20;99.80
32366;DHT22;18837;46.832;16.838;2024-02-04T11:32:11;7.30;99.70
32366;DHT22;18837;46.832;16.838;2024-02-04T11:34:38;7.40;99.80
32366;DHT22;18837;46.832;16.838;2024-02-04T11:37:22;7.50;99.80
32366;DHT22;18837;46.832;16.838;2024-02-04T11:40:13;7.70;99.80
32366;DHT22;18837;46.832;16.838;2024-02-04T11:42:40;7.60;99.30
32366;DHT22;18837;46.832;16.838;2024-02-04T11:45:10;7.60;99.20
32366;DHT22;18837;46.832;16.838;2024-02-04T11:47:37;7.60;99.30
32366;DHT22;18837;46.832;16.838;2024-02-04T11:50:04;7.60;98.20
32366;DHT22;18837;46.832;16.838;2024-02-04T11:52:30;7.60;99.40
32366;DHT22;18837;46.832;16.838;2024-02-04T11:54:56;7.60;99.70
32366;DHT22;18837;46.832;16.838;2024-02-04T11:57:23;7.60;99.90
32366;DHT22;18837;46.832;16.838;2024-02-04T11:59:51;7.60;99.90
32366;DHT22;18837;46.832;16.838;2024-02-04T12:02:19;7.60;99.20
32366;DHT22;18837;46.832;16.838;2024-02-04T12:04:46;7.60;98.30
32366;DHT22;18837;46.832;16.838;2024-02-04T12:07:13;7.60;99.30
32366;DHT22;18837;46.832;16.838;2024-02-04T12:09:40;7.60;99.20
32366;DHT22;18837;46.832;16.838;2024-02-04T12:12:07;7.70;99.90
32366;DHT22;18837;46.832;16.838;2024-02-04T12:14:35;7.70;99.00
32366;DHT22;18837;46.832;16.838;2024-02-04T12:17:10;7.90;99.40
32366;DHT22;18837;46.832;16.838;2024-02-04T12:19:37;8.00;99.20
32366;DHT22;18837;46.832;16.838;2024-02-04T12:22:06;8.00;99.30
32366;DHT22;18837;46.832;16.838;2024-02-04T12:24:36;8.10;99.10
32366;DHT22;18837;46.832;16.838;2024-02-04T12:27:06;8.00;98.90
32366;DHT22;18837;46.832;16.838;2024-02-04T12:29:33;8.00;97.40
32366;DHT22;18837;46.832;16.838;2024-02-04T12:32:01;8.00;99.80
32366;DHT22;18837;46.832;16.838;2024-02-04T12:34:30;8.00;99.90
32366;DHT22;18837;46.832;16.838;2024-02-04T12:37:00;8.00;99.10
32366;DHT22;18837;46.832;16.838;2024-02-04T12:39:26;8.00;99.20
32366;DHT22;18837;46.832;16.838;2024-02-04T12:41:52;7.90;99.70
32366;DHT22;18837;46.832;16.838;2024-02-04T12:44:19;8.00;98.50
32366;DHT22;18837;46.832;16.838;2024-02-04T12:46:45;8.00;99.90
32366;DHT22;18837;46.832;16.838;2024-02-04T12:49:20;7.90;99.60
32366;DHT22;18837;46.832;16.838;2024-02-04T12:51:49;8.00;97.10
32366;DHT22;18837;46.832;16.838;2024-02-04T12:54:18;8.10;99.20
32366;DHT22;18837;46.832;16.838;2024-02-04T12:56:53;8.20;97.70
32366;DHT22;18837;46.832;16.838;2024-02-04T12:59:34;8.20;96.80
32366;DHT22;18837;46.832;16.838;2024-02-04T13:02:04;8.20;97.40
32366;DHT22;18837;46.832;16.838;2024-02-04T13:04:37;8.20;99.80
32366;DHT22;18837;46.832;16.838;2024-02-04T13:07:08;8.20;97.40
32366;DHT22;18837;46.832;16.838;2024-02-04T13:09:43;8.20;98.40
32366;DHT22;18837;46.832;16.838;2024-02-04T13:12:10;8.10;98.80
32366;DHT22;18837;46.832;16.838;2024-02-04T13:14:37;8.10;99.10
32366;DHT22;18837;46.832;16.838;2024-02-04T13:17:09;8.10;99.20
32366;DHT22;18837;46.832;16.838;2024-02-04T13:19:48;8.10;98.40
32366;DHT22;18837;46.832;16.838;2024-02-04T13:22:14;8.00;98.30
32366;DHT22;18837;46.832;16.838;2024-02-04T13:24:41;8.00;98.10
32366;DHT22;18837;46.832;16.838;2024-02-04T13:27:10;8.00;98.40
32366;DHT22;18837;46.832;16.838;2024-02-04T13:29:37;8.10;98.30
32366;DHT22;18837;46.832;16.838;2024-02-04T13:32:05;8.20;98.50
32366;DHT22;18837;46.832;16.838;2024-02-04T13:34:31;8.20;98.40
32366;DHT22;18837;46.832;16.838;2024-02-04T13:36:59;8.20;99.00
32366;DHT22;18837;46.832;16.838;2024-02-04T13:39:27;8.20;97.00
32366;DHT22;18837;46.832;16.838;2024-02-04T13:41:53;8.30;98.30
32366;DHT22;18837;46.832;16.838;2024-02-04T13:44:19;8.30;99.00
32366;DHT22;18837;46.832;16.838;2024-02-04T13:46:46;8.30;98.70
32366;DHT22;18837;46.832;16.838;2024-02-04T13:49:12;8.20;98.80
32366;DHT22;18837;46.832;16.838;2024-02-04T13:51:40;8.20;99.20
32366;DHT22;18837;46.832;16.838;2024-02-04T13:54:06;8.20;98.60
32366;DHT22;18837;46.832;16.838;2024-02-04T13:56:33;8.20;98.60
32366;DHT22;18837;46.832;16.838;2024-02-04T13:58:59;8.20;98.00
32366;DHT22;18837;46.832;16.838;2024-02-04T14:01:25;8.20;99.40
32366;DHT22;18837;46.832;16.838;2024-02-04T14:03:51;8.20;99.10
32366;DHT22;18837;46.832;16.838;2024-02-04T14:06:17;8.20;98.40
32366;DHT22;18837;46.832;16.838;2024-02-04T14:08:44;8.30;98.80
32366;DHT22;18837;46.832;16.838;2024-02-04T14:11:15;8.30;99.20
32366;DHT22;18837;46.832;16.838;2024-02-04T14:13:42;8.40;99.20
32366;DHT22;18837;46.832;16.838;2024-02-04T14:16:07;8.40;98.40
32366;DHT22;18837;46.832;16.838;2024-02-04T14:18:35;8.40;99.00
32366;DHT22;18837;46.832;16.838;2024-02-04T14:21:00;8.40;98.10
32366;DHT22;18837;46.832;16.838;2024-02-04T14:26:02;8.30;96.60
32366;DHT22;18837;46.832;16.838;2024-02-04T14:28:33;8.30;97.90
32366;DHT22;18837;46.832;16.838;2024-02-04T14:31:07;8.30;98.50
32366;DHT22;18837;46.832;16.838;2024-02-04T14:33:34;8.20;98.40
32366;DHT22;18837;46.832;16.838;2024-02-04T14:36:01;8.30;97.80
32366;DHT22;18837;46.832;16.838;2024-02-04T14:38:27;8.20;98.50
32366;DHT22;18837;46.832;16.838;2024-02-04T14:40:54;8.20;97.70
32366;DHT22;18837;46.832;16.838;2024-02-04T14:43:24;8.20;97.20
32366;DHT22;18837;46.832;16.838;2024-02-04T14:45:51;8.30;98.40
32366;DHT22;18837;46.832;16.838;2024-02-04T14:48:17;8.30;98.70
32366;DHT22;18837;46.832;16.838;2024-02-04T14:50:44;8.30;99.00
32366;DHT22;18837;46.832;16.838;2024-02-04T14:53:10;8.30;98.80
32366;DHT22;18837;46.832;16.838;2024-02-04T14:55:36;8.30;98.20
32366;DHT22;18837;46.832;16.838;2024-02-04T14:58:02;8.30;97.80
32366;DHT22;18837;46.832;16.838;2024-02-04T15:00:40;8.20;98.50
32366;DHT22;18837;46.832;16.838;2024-02-04T15:03:30;8.20;98.40
32366;DHT22;18837;46.832;16.838;2024-02-04T15:06:01;8.20;97.80
32366;DHT22;18837;46.832;16.838;2024-02-04T15:08:28;8.20;98.30
32366;DHT22;18837;46.832;16.838;2024-02-04T15:10:56;8.10;96.80
32366;DHT22;18837;46.832;16.838;2024-02-04T15:13:24;8.10;97.40
32366;DHT22;18837;46.832;16.838;2024-02-04T15:15:52;8.10;98.00
32366;DHT22;18837;46.832;16.838;2024-02-04T15:18:20;8.00;98.10
32366;DHT22;18837;46.832;16.838;2024-02-04T15:20:46;8.10;98.30
32366;DHT22;18837;46.832;16.838;2024-02-04T15:23:14;8.00;98.40
32366;DHT22;18837;46.832;16.838;2024-02-04T15:25:40;8.10;98.00
32366;DHT22;18837;46.832;16.838;2024-02-04T15:28:09;8.10;98.00
32366;DHT22;18837;46.832;16.838;2024-02-04T15:30:37;8.10;98.50
32366;DHT22;18837;46.832;16.838;2024-02-04T15:33:04;8.00;98.40
32366;DHT22;18837;46.832;16.838;2024-02-04T15:35:38;8.00;98.00
32366;DHT22;18837;46.832;16.838;2024-02-04T15:41:21;7.90;97.70
32366;DHT22;18837;46.832;16.838;2024-02-04T15:43:46;7.90;98.40
32366;DHT22;18837;46.832;16.838;2024-02-04T15:46:12;7.90;98.40
32366;DHT22;18837;46.832;16.838;2024-02-04T15:48:41;7.80;98.00
32366;DHT22;18837;46.832;16.838;2024-02-04T15:51:10;7.80;97.00
32366;DHT22;18837;46.832;16.838;2024-02-04T15:53:36;7.70;97.90
32366;DHT22;18837;46.832;16.838;2024-02-04T15:56:07;7.70;98.30
32366;DHT22;18837;46.832;16.838;2024-02-04T15:58:36;7.70;98.30
32366;DHT22;18837;46.832;16.838;2024-02-04T16:01:10;7.70;98.90
32366;DHT22;18837;46.832;16.838;2024-02-04T16:03:38;7.70;97.50
32366;DHT22;18837;46.832;16.838;2024-02-04T16:06:06;7.70;98.20
32366;DHT22;18837;46.832;16.838;2024-02-04T16:08:33;7.70;98.20
32366;DHT22;18837;46.832;16.838;2024-02-04T16:11:03;7.70;97.90
32366;DHT22;18837;46.832;16.838;2024-02-04T16:13:33;7.70;98.30
32366;DHT22;18837;46.832;16.838;2024-02-04T16:16:02;7.60;98.30
32366;DHT22;18837;46.832;16.838;2024-02-04T16:18:28;7.60;98.40
32366;DHT22;18837;46.832;16.838;2024-02-04T16:20:54;7.60;98.00
32366;DHT22;18837;46.832;16.838;2024-02-04T16:23:21;7.50;98.30
32366;DHT22;18837;46.832;16.838;2024-02-04T16:25:49;7.50;98.50
32366;DHT22;18837;46.832;16.838;2024-02-04T16:28:16;7.40;97.80
32366;DHT22;18837;46.832;16.838;2024-02-04T16:30:42;7.40;98.00
32366;DHT22;18837;46.832;16.838;2024-02-04T16:33:09;7.40;98.20
32366;DHT22;18837;46.832;16.838;2024-02-04T16:35:35;7.40;98.30